Hancock, Maryland
Current Conditions -  °F | °C
As of 12:53 PM on Saturday 25 Oct 2014 (Local Time) from KMRB Reporting Station
Clear Clear  
Wind Chill: 69°   Ceiling: Unl
Heat Index: 69°   Visibility: 10mi
Dew Point: 40°   Wind: 16mph
Humidity: 35%   Direction: 260°W
Pressure: 29.88"   Gusts: 23mph
Location:  39.7°N, 78.18°W
Report Text: KMRB 251653Z 26014G20KT 10SM CLR 21/04 A2988 RMK AO2 SLP116 T02060044 $
Loading
Personal Weather Stations






























Interactive Weather Map
Tropical Storm Tracking
New forecast layout! Learn more

10-Day Weather Forecast

Advertisements
Track Severe Weather on mobile